createdAt,value
2019-03-22T00:01:21.961Z,2.40
2019-03-22T00:03:48.169Z,2.80
2019-03-22T00:06:14.426Z,2.87
2019-03-22T00:08:40.765Z,2.80
2019-03-22T00:11:07.024Z,3.20
2019-03-22T00:13:33.277Z,3.20
2019-03-22T00:15:59.521Z,2.90
2019-03-22T00:18:25.775Z,3.00
2019-03-22T00:20:52.007Z,3.10
2019-03-22T00:23:18.387Z,3.27
2019-03-22T00:25:44.657Z,3.10
2019-03-22T00:28:11.052Z,2.43
2019-03-22T00:30:37.289Z,2.90
2019-03-22T00:33:03.560Z,2.70
2019-03-22T00:35:29.777Z,2.87
2019-03-22T00:37:56.004Z,2.50
2019-03-22T00:40:22.250Z,2.50
2019-03-22T00:42:48.477Z,3.07
2019-03-22T00:45:14.742Z,2.77
2019-03-22T00:47:40.958Z,2.30
2019-03-22T00:50:09.618Z,2.80
2019-03-22T00:52:35.886Z,2.40
2019-03-22T00:55:02.621Z,2.63
2019-03-22T00:57:29.006Z,2.70
2019-03-22T00:59:55.202Z,2.53
2019-03-22T01:02:21.466Z,2.80
2019-03-22T01:04:47.711Z,2.20
2019-03-22T01:07:14.477Z,2.30
2019-03-22T01:09:41.313Z,2.60
2019-03-22T01:12:07.887Z,2.40
2019-03-22T01:14:34.555Z,2.40
2019-03-22T01:17:01.380Z,2.60
2019-03-22T01:19:28.163Z,2.20
2019-03-22T01:21:54.539Z,2.17
2019-03-22T01:24:21.078Z,2.53
2019-03-22T01:26:47.309Z,1.73
2019-03-22T01:29:13.590Z,2.50
2019-03-22T01:31:40.113Z,2.30
2019-03-22T01:34:06.487Z,2.23
2019-03-22T01:36:32.857Z,1.70
2019-03-22T01:38:59.174Z,2.27
2019-03-22T01:41:25.570Z,2.03
2019-03-22T01:43:51.821Z,2.00
2019-03-22T01:46:18.243Z,2.23
2019-03-22T01:48:44.762Z,2.10
2019-03-22T01:51:11.160Z,2.73
2019-03-22T01:53:37.466Z,2.50
2019-03-22T01:56:03.886Z,2.30
2019-03-22T01:58:30.219Z,2.40
2019-03-22T02:00:56.637Z,2.33
2019-03-22T02:03:22.853Z,2.17
2019-03-22T02:05:49.112Z,2.50
2019-03-22T02:08:15.360Z,2.30
2019-03-22T02:10:41.622Z,2.50
2019-03-22T02:13:08.045Z,2.33
2019-03-22T02:15:34.523Z,2.20
2019-03-22T02:18:00.783Z,2.37
2019-03-22T02:20:27.452Z,2.47
2019-03-22T02:22:53.819Z,2.10
2019-03-22T02:25:20.366Z,2.83
2019-03-22T02:27:46.621Z,2.63
2019-03-22T02:30:15.067Z,2.70
2019-03-22T02:32:41.424Z,2.67
2019-03-22T02:35:08.907Z,2.13
2019-03-22T02:37:35.520Z,2.87
2019-03-22T02:40:04.378Z,2.67
2019-03-22T02:42:30.638Z,2.67
2019-03-22T02:44:56.878Z,2.63
2019-03-22T02:47:23.509Z,2.40
2019-03-22T02:49:49.748Z,2.40
2019-03-22T02:52:16.029Z,2.83
2019-03-22T02:54:42.274Z,2.97
2019-03-22T02:57:08.680Z,2.70
2019-03-22T02:59:35.096Z,2.67
2019-03-22T03:02:01.487Z,2.37
2019-03-22T03:04:28.170Z,2.83
2019-03-22T03:06:54.417Z,2.93
2019-03-22T03:09:20.923Z,2.40
2019-03-22T03:11:47.193Z,2.80
2019-03-22T03:14:13.691Z,2.23
2019-03-22T03:16:40.111Z,2.50
2019-03-22T03:19:06.520Z,3.03
2019-03-22T03:21:32.858Z,2.73
2019-03-22T03:23:59.118Z,2.43
2019-03-22T03:26:25.648Z,2.63
2019-03-22T03:28:52.051Z,2.03
2019-03-22T03:31:18.550Z,2.27
2019-03-22T03:33:44.997Z,2.93
2019-03-22T03:36:11.392Z,2.53
2019-03-22T03:38:37.767Z,2.40
2019-03-22T03:41:04.207Z,2.87
2019-03-22T03:43:30.435Z,2.93
2019-03-22T03:45:58.596Z,2.93
2019-03-22T03:48:24.827Z,2.63
2019-03-22T03:50:51.126Z,3.77
2019-03-22T03:53:17.910Z,4.63
2019-03-22T03:55:44.273Z,4.30
2019-03-22T03:58:10.971Z,4.17
2019-03-22T04:00:37.797Z,3.57
2019-03-22T04:03:04.418Z,3.37
2019-03-22T04:05:30.908Z,3.23
2019-03-22T04:07:57.524Z,2.93
2019-03-22T04:10:25.913Z,3.10
2019-03-22T04:12:52.684Z,3.07
2019-03-22T04:15:19.346Z,2.83
2019-03-22T04:17:45.783Z,3.13
2019-03-22T04:20:12.222Z,2.83
2019-03-22T04:22:38.529Z,2.70
2019-03-22T04:25:06.100Z,2.40
2019-03-22T04:27:32.453Z,2.73
2019-03-22T04:29:58.719Z,3.60
2019-03-22T04:32:24.951Z,4.03
2019-03-22T04:34:51.319Z,3.23
2019-03-22T04:37:17.587Z,2.47
2019-03-22T04:39:44.023Z,2.53
2019-03-22T04:42:10.381Z,3.00
2019-03-22T04:44:36.680Z,2.87
2019-03-22T04:47:03.422Z,2.97
2019-03-22T04:49:32.193Z,2.60
2019-03-22T04:51:59.058Z,2.77
2019-03-22T04:54:26.993Z,2.80
2019-03-22T04:56:55.059Z,2.63
2019-03-22T04:59:22.222Z,2.40
2019-03-22T05:01:51.826Z,3.20
2019-03-22T05:04:20.557Z,2.90
2019-03-22T05:06:48.650Z,3.20
2019-03-22T05:09:16.619Z,2.50
2019-03-22T05:11:45.860Z,2.47
2019-03-22T05:14:15.345Z,2.83
2019-03-22T05:16:43.352Z,2.57
2019-03-22T05:19:10.542Z,2.83
2019-03-22T05:21:37.175Z,2.70
2019-03-22T05:24:04.338Z,2.83
2019-03-22T05:26:33.572Z,3.07
2019-03-22T05:29:00.338Z,3.53
2019-03-22T05:31:33.177Z,9.43
2019-03-22T05:33:59.441Z,11.10
2019-03-22T05:36:25.779Z,10.20
2019-03-22T05:38:52.433Z,13.00
2019-03-22T05:41:18.751Z,999.90
2019-03-22T05:43:45.043Z,999.90
2019-03-22T05:46:11.327Z,999.90
2019-03-22T05:48:37.750Z,999.90
2019-03-22T05:51:04.132Z,999.90
2019-03-22T05:53:32.428Z,999.90
2019-03-22T05:55:58.950Z,999.90
2019-03-22T05:58:25.491Z,20.10
2019-03-22T06:00:51.819Z,999.90
2019-03-22T06:03:18.081Z,999.90
2019-03-22T06:05:44.324Z,999.90
2019-03-22T06:08:10.691Z,999.90
2019-03-22T06:10:37.054Z,999.90
2019-03-22T06:13:03.322Z,999.90
2019-03-22T06:15:29.556Z,999.90
2019-03-22T06:17:55.901Z,999.90
2019-03-22T06:20:22.129Z,24.00
2019-03-22T06:22:48.361Z,20.60
2019-03-22T06:25:14.646Z,18.07
2019-03-22T06:27:41.007Z,12.70
2019-03-22T06:30:09.045Z,9.70
2019-03-22T06:32:35.389Z,7.13
2019-03-22T06:35:02.058Z,6.57
2019-03-22T06:37:28.292Z,7.77
2019-03-22T06:39:54.583Z,7.20
2019-03-22T06:42:20.818Z,6.60
2019-03-22T06:44:47.337Z,7.43
2019-03-22T06:47:13.947Z,5.40
2019-03-22T06:49:40.150Z,4.90
2019-03-22T06:52:06.579Z,4.03
2019-03-22T06:54:32.838Z,4.90
2019-03-22T06:56:59.095Z,4.10
2019-03-22T06:59:25.428Z,4.27
2019-03-22T07:01:51.786Z,3.77
2019-03-22T07:04:18.126Z,4.00
2019-03-22T07:06:44.441Z,4.20
2019-03-22T07:09:10.620Z,3.97
2019-03-22T07:11:36.841Z,3.60
2019-03-22T07:14:03.316Z,3.50
2019-03-22T07:16:29.545Z,3.37
2019-03-22T07:18:56.125Z,3.60
2019-03-22T07:21:22.367Z,4.13
2019-03-22T07:23:49.038Z,3.50
2019-03-22T07:26:15.283Z,4.00
2019-03-22T07:28:41.544Z,3.67
2019-03-22T07:31:07.882Z,4.40
2019-03-22T07:33:34.147Z,3.87
2019-03-22T07:36:00.387Z,4.57
2019-03-22T07:38:26.614Z,4.30
2019-03-22T07:40:52.899Z,4.00
2019-03-22T07:43:19.128Z,4.10
2019-03-22T07:45:45.390Z,4.60
2019-03-22T07:48:11.629Z,4.10
2019-03-22T07:50:37.918Z,4.60
2019-03-22T07:53:04.146Z,4.80
2019-03-22T07:55:30.406Z,4.42
2019-03-22T07:57:56.646Z,4.95
2019-03-22T08:00:30.759Z,4.87
2019-03-22T08:02:50.970Z,4.55
2019-03-22T08:05:17.200Z,5.25
2019-03-22T08:07:43.458Z,5.05
2019-03-22T08:10:10.003Z,5.30
2019-03-22T08:12:36.253Z,5.25
2019-03-22T08:15:03.913Z,5.20
2019-03-22T08:17:30.187Z,5.60
2019-03-22T08:19:57.418Z,5.03
2019-03-22T08:22:23.893Z,4.90
2019-03-22T08:24:50.116Z,5.00
2019-03-22T08:27:16.380Z,6.25
2019-03-22T08:29:42.626Z,5.30
2019-03-22T08:32:10.053Z,4.40
2019-03-22T08:34:36.266Z,4.97
2019-03-22T08:37:02.525Z,4.87
2019-03-22T08:39:28.761Z,4.63
2019-03-22T08:41:54.986Z,5.27
2019-03-22T08:44:21.250Z,5.03
2019-03-22T08:46:47.503Z,4.90
2019-03-22T08:49:13.813Z,6.37
2019-03-22T08:51:40.150Z,4.90
2019-03-22T08:54:06.371Z,5.13
2019-03-22T08:56:32.649Z,5.27
2019-03-22T08:58:58.828Z,4.60
2019-03-22T09:01:25.103Z,4.43
2019-03-22T09:03:51.309Z,4.60
2019-03-22T09:06:17.572Z,5.47
2019-03-22T09:08:43.925Z,5.30
2019-03-22T09:11:10.160Z,5.53
2019-03-22T09:13:36.530Z,5.63
2019-03-22T09:16:02.935Z,5.80
2019-03-22T09:18:29.332Z,5.67
2019-03-22T09:20:55.527Z,6.37
2019-03-22T09:23:21.787Z,5.47
2019-03-22T09:25:48.372Z,5.67
2019-03-22T09:28:14.582Z,5.23
2019-03-22T09:30:40.808Z,5.70
2019-03-22T09:33:07.244Z,5.90
2019-03-22T09:35:33.406Z,6.10
2019-03-22T09:38:12.034Z,5.53
2019-03-22T09:40:27.819Z,5.27
2019-03-22T09:42:54.128Z,4.93
2019-03-22T09:45:20.413Z,4.87
2019-03-22T09:47:46.617Z,5.60
2019-03-22T09:50:13.210Z,5.10
2019-03-22T09:52:39.447Z,5.43
2019-03-22T09:55:13.453Z,5.53
2019-03-22T09:57:33.882Z,5.60
2019-03-22T10:00:00.349Z,7.63
2019-03-22T10:02:26.525Z,6.90
2019-03-22T10:04:52.820Z,6.67
2019-03-22T10:07:18.989Z,6.33
2019-03-22T10:09:45.318Z,6.10
2019-03-22T10:12:11.688Z,6.00
2019-03-22T10:14:37.934Z,6.07
2019-03-22T10:17:04.223Z,5.67
2019-03-22T10:19:30.479Z,6.07
2019-03-22T10:21:56.741Z,6.47
2019-03-22T10:24:22.936Z,6.60
2019-03-22T10:26:49.226Z,6.33
2019-03-22T10:29:15.503Z,5.80
2019-03-22T10:31:41.711Z,6.07
2019-03-22T10:34:08.039Z,6.50
2019-03-22T10:36:34.318Z,5.37
2019-03-22T10:39:00.548Z,6.50
2019-03-22T10:41:26.772Z,6.30
2019-03-22T10:43:53.104Z,6.50
2019-03-22T10:46:19.265Z,6.37
2019-03-22T10:48:45.530Z,6.60
2019-03-22T10:51:11.802Z,6.10
2019-03-22T10:53:38.094Z,6.43
2019-03-22T10:56:05.274Z,6.23
2019-03-22T10:58:31.549Z,7.20
2019-03-22T11:00:57.876Z,6.50
2019-03-22T11:03:24.150Z,6.30
2019-03-22T11:05:50.483Z,6.50
2019-03-22T11:08:16.722Z,6.73
2019-03-22T11:10:42.982Z,6.60
2019-03-22T11:13:09.223Z,6.30
2019-03-22T11:15:35.607Z,6.33
2019-03-22T11:18:01.951Z,5.97
2019-03-22T11:20:28.214Z,6.03
2019-03-22T11:22:54.434Z,6.80
2019-03-22T11:25:20.706Z,6.10
2019-03-22T11:27:46.954Z,7.10
2019-03-22T11:30:16.680Z,6.23
2019-03-22T11:32:43.418Z,5.80
2019-03-22T11:35:09.790Z,6.17
2019-03-22T11:37:36.062Z,6.17
2019-03-22T11:40:05.106Z,6.17
2019-03-22T11:42:31.368Z,5.90
2019-03-22T11:44:57.708Z,6.60
2019-03-22T11:47:23.965Z,6.27
2019-03-22T11:49:50.522Z,6.03
2019-03-22T11:52:16.903Z,5.63
2019-03-22T11:54:43.132Z,5.80
2019-03-22T11:57:09.392Z,5.87
2019-03-22T11:59:35.730Z,5.03
2019-03-22T12:02:02.010Z,5.73
2019-03-22T12:04:30.245Z,5.93
2019-03-22T12:06:56.473Z,6.17
2019-03-22T12:09:23.042Z,5.60
2019-03-22T12:11:49.551Z,5.20
2019-03-22T12:14:15.811Z,5.77
2019-03-22T12:16:42.037Z,6.30
2019-03-22T12:19:08.502Z,5.77
2019-03-22T12:21:34.750Z,6.37
2019-03-22T12:24:01.018Z,6.37
2019-03-22T12:26:27.249Z,5.90
2019-03-22T12:28:53.545Z,5.17
2019-03-22T12:31:19.765Z,5.67
2019-03-22T12:33:45.998Z,6.37
2019-03-22T12:36:12.262Z,5.93
2019-03-22T12:38:38.510Z,5.27
2019-03-22T12:41:04.861Z,5.80
2019-03-22T12:43:31.086Z,5.60
2019-03-22T12:45:57.346Z,6.03
2019-03-22T12:48:23.846Z,5.10
2019-03-22T12:50:50.147Z,6.33
2019-03-22T12:53:16.388Z,6.13
2019-03-22T12:55:42.758Z,7.37
2019-03-22T12:58:08.998Z,6.17
2019-03-22T13:00:35.338Z,6.57
2019-03-22T13:03:01.702Z,6.03
2019-03-22T13:05:28.070Z,6.63
2019-03-22T13:07:54.459Z,6.43
2019-03-22T13:10:23.399Z,6.33
2019-03-22T13:12:49.664Z,6.20
2019-03-22T13:15:16.042Z,6.37
2019-03-22T13:17:42.290Z,6.10
2019-03-22T13:20:12.975Z,6.07
2019-03-22T13:22:39.233Z,6.63
2019-03-22T13:25:07.005Z,6.43
2019-03-22T13:27:33.342Z,6.10
2019-03-22T13:29:59.617Z,6.00
2019-03-22T13:32:25.856Z,6.10
2019-03-22T13:34:52.098Z,6.27
2019-03-22T13:37:18.337Z,6.30
2019-03-22T13:39:44.607Z,6.57
2019-03-22T13:42:10.843Z,7.20
2019-03-22T13:44:37.102Z,6.97
2019-03-22T13:47:03.331Z,6.00
2019-03-22T13:49:29.606Z,5.83
2019-03-22T13:51:55.858Z,5.93
2019-03-22T13:54:22.121Z,6.33
2019-03-22T13:56:48.387Z,5.80
2019-03-22T13:59:14.663Z,6.30
2019-03-22T14:01:40.906Z,5.50
2019-03-22T14:04:07.239Z,6.47
2019-03-22T14:06:33.482Z,5.90
2019-03-22T14:08:59.722Z,6.50
2019-03-22T14:11:25.984Z,6.17
2019-03-22T14:13:52.218Z,5.50
2019-03-22T14:16:18.492Z,5.57
2019-03-22T14:18:44.713Z,5.30
2019-03-22T14:21:11.013Z,5.70
2019-03-22T14:23:37.213Z,5.87
2019-03-22T14:26:03.798Z,6.00
2019-03-22T14:28:30.039Z,5.23
2019-03-22T14:30:56.310Z,5.80
2019-03-22T14:33:22.535Z,4.87
2019-03-22T14:35:48.889Z,5.67
2019-03-22T14:38:15.175Z,5.30
2019-03-22T14:40:41.403Z,5.20
2019-03-22T14:43:07.663Z,5.63
2019-03-22T14:45:33.906Z,5.93
2019-03-22T14:48:00.191Z,4.73
2019-03-22T14:50:26.452Z,5.20
2019-03-22T14:52:53.517Z,4.77
2019-03-22T14:55:19.906Z,5.27
2019-03-22T14:57:49.943Z,5.37
2019-03-22T15:00:14.397Z,8.87
2019-03-22T15:02:40.661Z,10.83
2019-03-22T15:05:07.108Z,6.63
2019-03-22T15:07:33.345Z,5.93
2019-03-22T15:09:59.623Z,6.37
2019-03-22T15:12:25.859Z,5.83
2019-03-22T15:14:54.027Z,5.47
2019-03-22T15:17:25.016Z,5.13
2019-03-22T15:19:55.949Z,5.20
2019-03-22T15:22:33.181Z,5.03
2019-03-22T15:25:01.350Z,4.83
2019-03-22T15:27:46.703Z,5.20
2019-03-22T15:30:17.590Z,5.40
2019-03-22T15:32:48.765Z,5.70
2019-03-22T15:35:17.002Z,6.57
2019-03-22T15:37:45.168Z,4.83
2019-03-22T15:40:11.563Z,7.60
2019-03-22T15:42:37.790Z,6.00
2019-03-22T15:45:06.271Z,6.37
2019-03-22T15:47:32.489Z,5.80
2019-03-22T15:49:58.725Z,7.08
2019-03-22T15:52:25.006Z,7.70
2019-03-22T15:54:51.439Z,5.97
2019-03-22T15:57:17.690Z,6.13
2019-03-22T15:59:43.930Z,5.40
2019-03-22T16:02:10.485Z,5.33
2019-03-22T16:04:36.822Z,5.70
2019-03-22T16:07:04.781Z,4.93
2019-03-22T16:09:31.155Z,4.93
2019-03-22T16:11:57.456Z,6.00
2019-03-22T16:14:23.694Z,7.80
2019-03-22T16:16:49.924Z,8.58
2019-03-22T16:19:16.203Z,6.83
2019-03-22T16:21:42.530Z,7.85
2019-03-22T16:24:08.782Z,5.80
2019-03-22T16:26:35.019Z,5.87
2019-03-22T16:29:01.383Z,7.45
2019-03-22T16:31:27.610Z,8.50
2019-03-22T16:33:54.799Z,7.17
2019-03-22T16:36:21.231Z,5.67
2019-03-22T16:38:50.372Z,7.78
2019-03-22T16:41:16.630Z,6.37
2019-03-22T16:43:42.983Z,5.73
2019-03-22T16:46:09.260Z,5.90
2019-03-22T16:48:35.496Z,5.97
2019-03-22T16:51:01.795Z,5.60
2019-03-22T16:53:28.031Z,5.50
2019-03-22T16:55:54.288Z,5.83
2019-03-22T16:58:20.622Z,5.90
2019-03-22T17:00:49.649Z,9.25
2019-03-22T17:03:15.182Z,6.60
2019-03-22T17:05:41.606Z,6.13
2019-03-22T17:08:07.975Z,5.63
2019-03-22T17:10:34.237Z,6.03
2019-03-22T17:13:00.506Z,6.47
2019-03-22T17:15:26.753Z,6.23
2019-03-22T17:17:53.015Z,6.40
2019-03-22T17:20:19.459Z,6.80
2019-03-22T17:22:45.738Z,6.30
2019-03-22T17:25:12.192Z,6.23
2019-03-22T17:27:38.570Z,6.33
2019-03-22T17:30:06.000Z,6.20
2019-03-22T17:32:32.361Z,6.10
2019-03-22T17:34:58.590Z,6.20
2019-03-22T17:37:24.840Z,6.23
2019-03-22T17:39:51.080Z,8.63
2019-03-22T17:42:17.306Z,7.13
2019-03-22T17:44:43.563Z,6.60
2019-03-22T17:47:09.806Z,6.57
2019-03-22T17:49:36.066Z,6.20
2019-03-22T17:52:02.435Z,6.20
2019-03-22T17:54:28.677Z,6.07
2019-03-22T17:56:54.910Z,6.27
2019-03-22T17:59:21.267Z,6.33
2019-03-22T18:01:47.977Z,6.40
2019-03-22T18:04:23.730Z,6.70
2019-03-22T18:06:42.588Z,6.37
2019-03-22T18:09:08.805Z,6.10
2019-03-22T18:11:35.125Z,5.67
2019-03-22T18:14:01.322Z,6.53
2019-03-22T18:16:27.735Z,6.43
2019-03-22T18:18:53.963Z,6.47
2019-03-22T18:21:20.412Z,6.53
2019-03-22T18:23:46.638Z,7.43
2019-03-22T18:26:12.934Z,6.63
2019-03-22T18:28:39.166Z,6.53
2019-03-22T18:31:05.541Z,7.00
2019-03-22T18:33:31.766Z,7.20
2019-03-22T18:35:58.022Z,6.77
2019-03-22T18:38:24.251Z,6.77
2019-03-22T18:40:50.558Z,6.73
2019-03-22T18:43:16.786Z,7.40
2019-03-22T18:45:43.023Z,7.57
2019-03-22T18:48:09.287Z,7.57
2019-03-22T18:50:35.566Z,7.57
2019-03-22T18:53:01.866Z,7.97
2019-03-22T18:55:28.086Z,7.93
2019-03-22T18:57:54.461Z,7.93
2019-03-22T19:00:20.777Z,8.17
2019-03-22T19:02:47.051Z,7.80
2019-03-22T19:05:13.566Z,11.73
2019-03-22T19:07:39.797Z,10.80
2019-03-22T19:10:11.843Z,9.47
2019-03-22T19:12:38.074Z,9.27
2019-03-22T19:15:07.280Z,8.53
2019-03-22T19:17:33.517Z,7.90
2019-03-22T19:19:59.777Z,8.67
2019-03-22T19:22:26.009Z,7.90
2019-03-22T19:24:52.290Z,8.20
2019-03-22T19:27:18.564Z,8.63
2019-03-22T19:29:44.774Z,8.53
2019-03-22T19:32:13.740Z,7.50
2019-03-22T19:34:39.094Z,7.97
2019-03-22T19:37:05.383Z,8.30
2019-03-22T19:39:31.598Z,8.03
2019-03-22T19:41:57.853Z,7.60
2019-03-22T19:44:24.182Z,7.63
2019-03-22T19:46:50.438Z,7.30
2019-03-22T19:49:16.682Z,7.73
2019-03-22T19:51:42.974Z,7.27
2019-03-22T19:54:09.199Z,8.43
2019-03-22T19:56:35.554Z,7.80
2019-03-22T19:59:01.802Z,8.63
2019-03-22T20:01:28.035Z,7.50
2019-03-22T20:03:54.395Z,7.87
2019-03-22T20:06:20.727Z,8.00
2019-03-22T20:08:46.983Z,7.77
2019-03-22T20:11:13.220Z,7.37
2019-03-22T20:13:39.529Z,7.67
2019-03-22T20:16:05.762Z,7.90
2019-03-22T20:18:32.086Z,7.30
2019-03-22T20:20:58.338Z,8.00
2019-03-22T20:23:24.570Z,9.17
2019-03-22T20:25:50.827Z,8.97
2019-03-22T20:28:17.045Z,7.57
2019-03-22T20:30:43.306Z,8.20
2019-03-22T20:33:09.546Z,8.60
2019-03-22T20:35:36.063Z,8.57
2019-03-22T20:38:02.310Z,9.20
2019-03-22T20:40:28.558Z,9.33
2019-03-22T20:42:54.790Z,12.07
2019-03-22T20:45:24.290Z,10.90
2019-03-22T20:47:49.090Z,8.83
2019-03-22T20:50:15.422Z,7.60
2019-03-22T20:52:41.702Z,7.83
2019-03-22T20:55:08.726Z,7.87
2019-03-22T20:57:34.990Z,6.83
2019-03-22T21:00:03.137Z,8.10
2019-03-22T21:02:29.394Z,7.10
2019-03-22T21:04:55.630Z,8.00
2019-03-22T21:07:21.862Z,7.10
2019-03-22T21:09:48.160Z,7.73
2019-03-22T21:12:14.410Z,8.13
2019-03-22T21:14:40.643Z,7.33
2019-03-22T21:17:06.877Z,7.57
2019-03-22T21:19:33.134Z,8.30
2019-03-22T21:21:59.470Z,7.23
2019-03-22T21:24:25.734Z,8.50
2019-03-22T21:26:51.978Z,8.10
2019-03-22T21:29:18.256Z,7.50
2019-03-22T21:31:44.482Z,8.00
2019-03-22T21:34:10.798Z,8.53
2019-03-22T21:36:37.110Z,8.53
2019-03-22T21:39:05.146Z,8.87
2019-03-22T21:41:31.513Z,8.57
2019-03-22T21:43:57.794Z,8.40
2019-03-22T21:46:24.098Z,9.03
2019-03-22T21:48:50.318Z,8.17
2019-03-22T21:51:17.255Z,8.10
2019-03-22T21:53:43.489Z,8.83
2019-03-22T21:56:09.846Z,7.60
2019-03-22T21:58:36.121Z,8.00
2019-03-22T22:01:02.547Z,8.27
2019-03-22T22:03:28.798Z,7.70
2019-03-22T22:05:55.038Z,7.57
2019-03-22T22:08:21.288Z,7.27
2019-03-22T22:10:47.518Z,7.47
2019-03-22T22:13:13.828Z,8.13
2019-03-22T22:15:40.011Z,8.20
2019-03-22T22:18:06.278Z,8.13
2019-03-22T22:20:32.510Z,7.50
2019-03-22T22:22:58.880Z,8.83
2019-03-22T22:25:25.355Z,8.73
2019-03-22T22:27:51.568Z,8.40
2019-03-22T22:30:17.934Z,8.30
2019-03-22T22:32:44.162Z,7.67
2019-03-22T22:35:10.522Z,8.40
2019-03-22T22:37:36.761Z,8.93
2019-03-22T22:40:05.722Z,9.70
2019-03-22T22:42:31.954Z,7.97
2019-03-22T22:44:58.219Z,8.13
2019-03-22T22:47:24.450Z,8.53
2019-03-22T22:49:50.678Z,7.57
2019-03-22T22:52:16.976Z,8.70
2019-03-22T22:54:43.206Z,7.03
2019-03-22T22:57:09.464Z,7.17
2019-03-22T22:59:35.677Z,7.20
2019-03-22T23:02:02.546Z,7.83
2019-03-22T23:04:28.766Z,8.43
2019-03-22T23:06:55.133Z,7.30
2019-03-22T23:09:21.363Z,7.67
2019-03-22T23:11:47.631Z,7.80
2019-03-22T23:14:13.850Z,7.73
2019-03-22T23:16:40.082Z,7.40
2019-03-22T23:19:06.342Z,7.40
2019-03-22T23:21:32.565Z,7.70
2019-03-22T23:23:58.825Z,7.63
2019-03-22T23:26:25.050Z,8.17
2019-03-22T23:28:51.350Z,7.53
2019-03-22T23:31:17.562Z,6.93
2019-03-22T23:33:43.874Z,7.17
2019-03-22T23:36:19.752Z,6.60
2019-03-22T23:38:38.170Z,7.13
2019-03-22T23:41:04.399Z,8.07
2019-03-22T23:43:30.626Z,7.30
2019-03-22T23:45:56.890Z,7.67
2019-03-22T23:48:23.109Z,7.93
2019-03-22T23:50:49.380Z,8.00
2019-03-22T23:53:15.740Z,7.43
2019-03-22T23:55:42.126Z,6.90
2019-03-22T23:58:08.845Z,6.87
